createdAt,value
2019-05-01T00:00:56.585Z,97.10
2019-05-01T00:05:15.999Z,97.20
2019-05-01T00:09:32.985Z,97.20
2019-05-01T00:13:49.455Z,97.10
2019-05-01T00:18:06.106Z,97.20
2019-05-01T00:22:22.952Z,97.50
2019-05-01T00:26:39.502Z,97.60
2019-05-01T00:30:56.132Z,97.50
2019-05-01T00:35:12.787Z,97.50
2019-05-01T00:39:29.521Z,97.50
2019-05-01T00:43:46.007Z,97.50
2019-05-01T00:48:02.551Z,97.60
2019-05-01T00:52:19.000Z,97.80
2019-05-01T00:56:37.557Z,97.70
2019-05-01T01:01:07.729Z,97.70
2019-05-01T01:05:24.498Z,97.90
2019-05-01T01:09:41.314Z,98.20
2019-05-01T01:13:57.872Z,98.00
2019-05-01T01:18:14.748Z,97.80
2019-05-01T01:22:31.377Z,97.70
2019-05-01T01:26:48.199Z,98.00
2019-05-01T01:31:04.749Z,98.20
2019-05-01T01:35:21.573Z,98.70
2019-05-01T01:39:38.235Z,98.40
2019-05-01T01:44:06.889Z,98.50
2019-05-01T01:48:23.721Z,98.70
2019-05-01T01:52:40.722Z,98.70
2019-05-01T01:56:57.303Z,98.50
2019-05-01T02:01:22.891Z,98.50
2019-05-01T02:05:41.435Z,98.50
2019-05-01T02:09:58.425Z,98.60
2019-05-01T02:14:15.455Z,98.60
2019-05-01T02:18:32.285Z,98.30
2019-05-01T02:22:48.943Z,98.20
2019-05-01T02:27:10.243Z,98.00
2019-05-01T02:31:31.859Z,98.00
2019-05-01T02:35:48.593Z,98.10
2019-05-01T02:40:44.871Z,98.10
2019-05-01T02:45:03.675Z,98.70
2019-05-01T02:49:33.114Z,98.50
2019-05-01T02:53:50.096Z,98.40
2019-05-01T02:58:08.349Z,98.50
2019-05-01T03:02:27.526Z,98.30
2019-05-01T03:06:45.639Z,98.20
2019-05-01T03:11:02.333Z,98.40
2019-05-01T03:15:24.359Z,98.60
2019-05-01T03:19:49.296Z,98.70
2019-05-01T03:24:11.151Z,98.70
2019-05-01T03:28:27.983Z,98.50
2019-05-01T03:32:44.464Z,98.50
2019-05-01T03:37:01.523Z,98.30
2019-05-01T03:41:18.180Z,98.20
2019-05-01T03:45:35.229Z,98.10
2019-05-01T03:49:52.187Z,98.10
2019-05-01T03:54:08.935Z,98.30
2019-05-01T03:58:25.571Z,98.40
2019-05-01T04:02:44.532Z,98.60
2019-05-01T04:07:01.171Z,98.70
2019-05-01T04:11:18.439Z,98.70
2019-05-01T04:15:35.505Z,98.70
2019-05-01T04:19:52.226Z,98.80
2019-05-01T04:24:09.205Z,98.80
2019-05-01T04:28:31.757Z,98.70
2019-05-01T04:32:53.235Z,98.70
2019-05-01T04:37:11.631Z,98.40
2019-05-01T04:41:28.545Z,98.40
2019-05-01T04:45:45.309Z,98.40
2019-05-01T04:50:05.102Z,98.40
2019-05-01T04:54:21.713Z,98.50
2019-05-01T04:58:38.499Z,98.50
2019-05-01T05:03:04.401Z,98.20
2019-05-01T05:07:16.015Z,98.20
2019-05-01T05:11:34.658Z,98.00
2019-05-01T05:16:02.452Z,97.60
2019-05-01T05:20:19.605Z,97.40
2019-05-01T05:24:36.535Z,97.10
2019-05-01T05:28:53.722Z,97.00
2019-05-01T05:33:18.556Z,96.90
2019-05-01T05:37:37.847Z,96.90
2019-05-01T05:41:55.168Z,96.90
2019-05-01T05:46:11.789Z,96.70
2019-05-01T05:50:48.712Z,96.50
2019-05-01T05:55:07.775Z,96.20
2019-05-01T05:59:32.337Z,96.20
2019-05-01T06:04:08.808Z,95.90
2019-05-01T06:08:29.999Z,95.60
2019-05-01T06:12:58.373Z,94.30
2019-05-01T06:17:23.715Z,94.00
2019-05-01T06:21:44.441Z,93.50
2019-05-01T06:26:21.805Z,93.00
2019-05-01T06:30:41.989Z,92.50
2019-05-01T06:34:58.579Z,91.40
2019-05-01T06:39:15.976Z,90.70
2019-05-01T06:43:43.676Z,91.10
2019-05-01T06:48:02.279Z,91.50
2019-05-01T06:52:24.859Z,91.40
2019-05-01T06:56:44.002Z,90.60
2019-05-01T07:01:00.764Z,90.20
2019-05-01T07:05:20.379Z,87.90
2019-05-01T07:09:37.783Z,88.70
2019-05-01T07:13:55.919Z,89.10
2019-05-01T07:18:23.714Z,91.50
2019-05-01T07:22:46.496Z,93.20
2019-05-01T07:27:03.244Z,94.00
2019-05-01T07:31:20.188Z,93.70
2019-05-01T07:35:37.984Z,94.00
2019-05-01T07:39:55.029Z,92.80
2019-05-01T07:44:14.750Z,91.30
2019-05-01T07:48:41.736Z,88.00
2019-05-01T07:52:55.799Z,86.20
2019-05-01T07:57:13.005Z,80.60
2019-05-01T08:01:29.773Z,77.30
2019-05-01T08:05:46.939Z,75.80
2019-05-01T08:10:09.074Z,77.20
2019-05-01T08:14:25.620Z,81.80
2019-05-01T08:18:58.992Z,81.50
2019-05-01T08:23:15.053Z,75.80
2019-05-01T08:27:33.841Z,77.40
2019-05-01T08:31:52.743Z,71.50
2019-05-01T08:36:11.704Z,65.80
2019-05-01T08:40:28.635Z,60.00
2019-05-01T08:45:05.058Z,56.10
2019-05-01T08:49:23.457Z,54.90
2019-05-01T08:53:39.952Z,52.60
2019-05-01T08:57:56.750Z,51.50
2019-05-01T09:02:13.878Z,54.20
2019-05-01T09:06:34.813Z,54.50
2019-05-01T09:10:49.776Z,53.00
2019-05-01T09:15:12.270Z,51.80
2019-05-01T09:19:25.711Z,50.20
2019-05-01T09:23:46.097Z,51.40
2019-05-01T09:28:11.765Z,51.70
2019-05-01T09:32:28.664Z,48.20
2019-05-01T09:36:45.699Z,49.40
2019-05-01T09:41:02.509Z,50.10
2019-05-01T09:45:19.268Z,50.20
2019-05-01T09:49:55.931Z,50.60
2019-05-01T09:54:20.609Z,52.40
2019-05-01T09:58:37.153Z,52.70
2019-05-01T10:02:54.762Z,53.60
2019-05-01T10:07:13.280Z,53.80
2019-05-01T10:11:30.762Z,53.80
2019-05-01T10:15:47.731Z,56.90
2019-05-01T10:20:06.052Z,58.80
2019-05-01T10:24:22.611Z,64.40
2019-05-01T10:28:45.137Z,74.10
2019-05-01T10:33:01.642Z,80.30
2019-05-01T10:37:18.202Z,87.70
2019-05-01T10:41:34.699Z,84.60
2019-05-01T10:45:51.254Z,85.30
2019-05-01T10:50:08.846Z,78.30
2019-05-01T10:54:25.416Z,73.10
2019-05-01T10:58:42.017Z,63.20
2019-05-01T11:02:58.728Z,62.80
2019-05-01T11:07:15.434Z,60.00
2019-05-01T11:11:32.146Z,59.80
2019-05-01T11:15:48.795Z,56.70
2019-05-01T11:20:06.692Z,53.30
2019-05-01T11:24:23.259Z,51.10
2019-05-01T11:28:40.143Z,48.80
2019-05-01T11:32:58.143Z,48.00
2019-05-01T11:37:19.065Z,47.40
2019-05-01T11:41:39.985Z,46.30
2019-05-01T11:45:56.589Z,45.20
2019-05-01T11:50:13.284Z,43.30
2019-05-01T11:54:29.829Z,43.80
2019-05-01T11:58:46.871Z,43.20
2019-05-01T12:03:03.792Z,42.60
2019-05-01T12:07:20.429Z,42.40
2019-05-01T12:11:38.899Z,43.70
2019-05-01T12:15:57.671Z,42.10
2019-05-01T12:20:15.315Z,41.50
2019-05-01T12:24:32.298Z,38.50
2019-05-01T12:28:48.877Z,37.10
2019-05-01T12:33:05.774Z,34.40
2019-05-01T12:37:33.003Z,32.70
2019-05-01T12:41:51.771Z,34.90
2019-05-01T12:46:10.385Z,34.70
2019-05-01T12:50:27.136Z,34.60
2019-05-01T12:54:57.794Z,34.00
2019-05-01T12:59:14.710Z,31.70
2019-05-01T13:03:31.246Z,29.20
2019-05-01T13:07:47.847Z,29.40
2019-05-01T13:12:04.579Z,31.70
2019-05-01T13:16:21.095Z,31.90
2019-05-01T13:20:37.702Z,29.70
2019-05-01T13:24:54.247Z,29.90
2019-05-01T13:29:15.508Z,33.70
2019-05-01T13:33:32.457Z,36.00
2019-05-01T13:37:48.991Z,38.50
2019-05-01T13:42:08.966Z,40.40
2019-05-01T13:46:25.102Z,38.30
2019-05-01T13:50:41.722Z,33.10
2019-05-01T13:54:58.693Z,30.50
2019-05-01T13:59:15.678Z,32.60
2019-05-01T14:03:32.390Z,33.60
2019-05-01T14:07:48.912Z,30.60
2019-05-01T14:12:05.490Z,29.40
2019-05-01T14:16:22.058Z,27.70
2019-05-01T14:20:58.989Z,27.00
2019-05-01T14:25:15.537Z,27.40
2019-05-01T14:29:32.191Z,26.60
2019-05-01T14:33:48.981Z,26.90
2019-05-01T14:38:05.774Z,26.90
2019-05-01T14:42:22.319Z,26.90
2019-05-01T14:46:39.053Z,26.50
2019-05-01T14:50:55.672Z,26.50
2019-05-01T14:55:12.383Z,26.40
2019-05-01T14:59:28.904Z,26.60
2019-05-01T15:03:45.756Z,25.60
2019-05-01T15:08:03.242Z,26.10
2019-05-01T15:12:19.849Z,28.60
2019-05-01T15:16:47.230Z,29.30
2019-05-01T15:21:03.757Z,27.80
2019-05-01T15:25:20.591Z,27.00
2019-05-01T15:29:37.592Z,27.50
2019-05-01T15:33:54.123Z,28.70
2019-05-01T15:38:10.622Z,29.70
2019-05-01T15:42:29.618Z,32.80
2019-05-01T15:46:46.344Z,35.70
2019-05-01T15:51:03.397Z,39.10
2019-05-01T15:55:19.915Z,40.40
2019-05-01T15:59:36.404Z,41.70
2019-05-01T16:03:52.943Z,43.40
2019-05-01T16:08:10.123Z,44.40
2019-05-01T16:12:28.994Z,45.30
2019-05-01T16:16:45.819Z,44.30
2019-05-01T16:21:02.632Z,46.10
2019-05-01T16:25:19.189Z,47.10
2019-05-01T16:29:35.723Z,47.80
2019-05-01T16:33:53.305Z,48.00
2019-05-01T16:38:23.176Z,48.50
2019-05-01T16:42:37.721Z,48.90
2019-05-01T16:46:54.258Z,49.10
2019-05-01T16:51:11.087Z,49.80
2019-05-01T16:55:28.192Z,50.30
2019-05-01T16:59:45.953Z,51.80
2019-05-01T17:04:11.814Z,51.80
2019-05-01T17:08:49.529Z,54.40
2019-05-01T17:13:07.027Z,57.50
2019-05-01T17:17:24.097Z,59.30
2019-05-01T17:21:41.143Z,59.90
2019-05-01T17:25:58.460Z,61.60
2019-05-01T17:30:20.352Z,62.60
2019-05-01T17:34:37.018Z,62.80
2019-05-01T17:38:53.614Z,64.10
2019-05-01T17:43:13.523Z,62.90
2019-05-01T17:47:29.622Z,63.30
2019-05-01T17:51:49.440Z,62.80
2019-05-01T17:56:10.084Z,58.30
2019-05-01T18:00:35.700Z,58.00
2019-05-01T18:04:58.352Z,57.20
2019-05-01T18:09:16.772Z,57.30
2019-05-01T18:13:40.010Z,57.60
2019-05-01T18:17:59.762Z,58.80
2019-05-01T18:22:38.888Z,59.30
2019-05-01T18:27:14.702Z,63.20
2019-05-01T18:31:33.157Z,62.30
2019-05-01T18:35:50.541Z,63.30
2019-05-01T18:40:11.832Z,62.80
2019-05-01T18:44:30.550Z,63.80
2019-05-01T18:48:52.151Z,66.70
2019-05-01T18:53:13.770Z,70.70
2019-05-01T18:57:33.705Z,74.90
2019-05-01T19:01:50.315Z,79.00
2019-05-01T19:06:08.433Z,83.20
2019-05-01T19:10:27.522Z,85.80
2019-05-01T19:14:46.489Z,87.70
2019-05-01T19:19:06.914Z,89.20
2019-05-01T19:23:27.738Z,90.60
2019-05-01T19:27:43.299Z,90.90
2019-05-01T19:32:01.815Z,91.20
2019-05-01T19:36:19.762Z,91.70
2019-05-01T19:40:37.599Z,92.00
2019-05-01T19:44:57.788Z,92.30
2019-05-01T19:49:17.939Z,92.50
2019-05-01T19:53:40.760Z,92.40
2019-05-01T19:57:59.844Z,92.60
2019-05-01T20:02:22.155Z,92.80
2019-05-01T20:06:39.948Z,92.80
2019-05-01T20:10:57.110Z,92.90
2019-05-01T20:15:14.718Z,93.00
2019-05-01T20:19:31.912Z,92.90
2019-05-01T20:23:48.592Z,92.90
2019-05-01T20:28:07.257Z,92.90
2019-05-01T20:32:26.169Z,92.90
2019-05-01T20:36:42.781Z,93.00
2019-05-01T20:40:59.456Z,93.00
2019-05-01T20:45:18.160Z,93.00
2019-05-01T20:49:36.427Z,93.30
2019-05-01T20:53:53.418Z,93.30
2019-05-01T20:58:14.784Z,93.30
2019-05-01T21:02:31.559Z,93.40
2019-05-01T21:07:06.507Z,93.70
2019-05-01T21:11:27.750Z,93.60
2019-05-01T21:15:47.118Z,93.50
2019-05-01T21:20:04.375Z,93.40
2019-05-01T21:24:20.905Z,93.40
2019-05-01T21:28:37.379Z,93.50
2019-05-01T21:32:54.237Z,93.50
2019-05-01T21:37:10.778Z,93.60
2019-05-01T21:41:27.553Z,93.60
2019-05-01T21:45:43.995Z,93.60
2019-05-01T21:50:00.635Z,93.70
2019-05-01T21:54:20.670Z,93.60
2019-05-01T21:58:36.010Z,93.90
2019-05-01T22:02:52.599Z,94.20
2019-05-01T22:07:09.650Z,94.60
2019-05-01T22:11:26.196Z,94.80
2019-05-01T22:15:48.992Z,95.20
2019-05-01T22:20:08.070Z,95.40
2019-05-01T22:24:43.112Z,95.70
2019-05-01T22:29:04.579Z,95.80
2019-05-01T22:33:21.169Z,96.10
2019-05-01T22:37:37.807Z,96.10
2019-05-01T22:41:54.251Z,96.30
2019-05-01T22:46:12.680Z,96.50
2019-05-01T22:50:29.117Z,97.10
2019-05-01T22:54:48.870Z,97.30
2019-05-01T22:59:04.103Z,97.40
2019-05-01T23:03:26.693Z,97.40
2019-05-01T23:07:43.301Z,97.50
2019-05-01T23:12:00.533Z,97.70
2019-05-01T23:16:19.180Z,97.80
2019-05-01T23:20:39.060Z,98.00
2019-05-01T23:24:54.171Z,98.00
2019-05-01T23:29:10.594Z,98.30
2019-05-01T23:33:27.297Z,98.30
2019-05-01T23:37:44.067Z,98.60
2019-05-01T23:42:00.773Z,98.60
2019-05-01T23:46:17.548Z,98.50
2019-05-01T23:50:34.400Z,98.60
2019-05-01T23:54:50.907Z,98.70
2019-05-01T23:59:07.657Z,98.60
